Time;durP1;ratioP1;P1;durP2;ratioP2;P2;SDS_P1;SDS_P2;PMS_P1;PMS_P2;Temp;Humidity;BMP_temperature;BMP_pressure;BME280_temperature;BME280_humidity;BME280_pressure;Samples;Min_cycle;Max_cycle;Signal;HPM_P1;HPM_P2
2023/07/18 00:02:23;;;;;;;3.08;1.30;;;;;;;;;;5147245;27;20663;-76
2023/07/18 00:04:52;;;;;;;4.57;1.48;;;;;;;;;;5151773;27;20042;-76
2023/07/18 00:07:20;;;;;;;4.60;1.33;;;;;;;;;;5145333;27;20131;-76
2023/07/18 00:09:48;;;;;;;2.88;1.10;;;;;;;;;;5147259;27;20481;-76
2023/07/18 00:12:15;;;;;;;5.22;1.50;;;;;;;;;;5142286;27;20053;-76
2023/07/18 00:14:42;;;;;;;7.10;1.50;;;;;;;;;;5149396;27;20138;-76
2023/07/18 00:17:09;;;;;;;8.55;1.30;;;;;;;;;;5147713;27;20053;-76
2023/07/18 00:19:37;;;;;;;3.97;1.20;;;;;;;;;;5149843;27;20366;-75
2023/07/18 00:22:07;;;;;;;4.47;1.50;;;;;;;;;;5130395;27;20724;-78
2023/07/18 00:24:35;;;;;;;4.93;1.60;;;;;;;;;;5144038;27;20054;-76
2023/07/18 00:27:03;;;;;;;5.53;1.60;;;;;;;;;;5141611;27;20454;-76
2023/07/18 00:29:31;;;;;;;3.63;1.23;;;;;;;;;;5132538;27;20057;-76
2023/07/18 00:31:59;;;;;;;4.03;1.55;;;;;;;;;;5142329;27;20382;-76
2023/07/18 00:34:26;;;;;;;5.30;1.50;;;;;;;;;;5131728;27;20039;-75
2023/07/18 00:36:55;;;;;;;6.22;1.33;;;;;;;;;;5148697;27;20051;-76
2023/07/18 00:39:24;;;;;;;8.95;1.98;;;;;;;;;;5146000;27;20123;-77
2023/07/18 00:41:52;;;;;;;8.65;1.67;;;;;;;;;;5132688;27;20109;-76
2023/07/18 00:44:19;;;;;;;4.57;1.58;;;;;;;;;;5127578;27;20051;-76
2023/07/18 00:46:46;;;;;;;4.30;1.70;;;;;;;;;;5150068;27;20042;-76
2023/07/18 00:49:14;;;;;;;5.25;1.45;;;;;;;;;;5147625;27;20517;-76
2023/07/18 00:51:41;;;;;;;6.72;1.80;;;;;;;;;;5124018;27;20058;-75
2023/07/18 00:54:08;;;;;;;5.88;1.60;;;;;;;;;;5128383;27;20047;-76
2023/07/18 00:56:37;;;;;;;5.70;1.30;;;;;;;;;;5128736;27;20062;-76
2023/07/18 00:59:05;;;;;;;5.32;1.77;;;;;;;;;;5147337;27;20068;-76
2023/07/18 01:01:34;;;;;;;6.78;1.60;;;;;;;;;;5145425;27;20536;-77
2023/07/18 01:04:01;;;;;;;3.92;1.42;;;;;;;;;;5143351;27;20122;-76
2023/07/18 01:06:28;;;;;;;5.38;1.42;;;;;;;;;;5141850;27;20054;-76
2023/07/18 01:08:56;;;;;;;3.92;1.73;;;;;;;;;;5146580;27;20421;-76
2023/07/18 01:11:23;;;;;;;6.80;2.00;;;;;;;;;;5146974;27;20051;-76
2023/07/18 01:13:52;;;;;;;4.35;1.70;;;;;;;;;;5126651;27;20047;-76
2023/07/18 01:16:19;;;;;;;3.55;1.80;;;;;;;;;;5147596;27;20103;-76
2023/07/18 01:18:46;;;;;;;8.90;1.88;;;;;;;;;;5130155;27;20154;-75
2023/07/18 01:21:18;;;;;;;5.43;1.77;;;;;;;;;;5147763;27;20054;-76
2023/07/18 01:23:45;;;;;;;5.57;1.90;;;;;;;;;;5140030;27;20047;-76
2023/07/18 01:26:12;;;;;;;8.20;2.25;;;;;;;;;;5148012;27;20065;-75
2023/07/18 01:28:39;;;;;;;4.68;1.60;;;;;;;;;;5122789;27;20046;-76
2023/07/18 01:31:07;;;;;;;6.90;1.70;;;;;;;;;;5131652;27;20043;-76
2023/07/18 01:33:34;;;;;;;10.27;2.35;;;;;;;;;;5142023;27;20091;-76
2023/07/18 01:36:02;;;;;;;4.20;1.52;;;;;;;;;;5144072;27;20933;-75
2023/07/18 01:38:31;;;;;;;4.55;1.55;;;;;;;;;;5147496;27;20139;-76
2023/07/18 01:40:58;;;;;;;5.72;1.70;;;;;;;;;;5137814;27;20038;-75
2023/07/18 01:43:25;;;;;;;6.75;2.05;;;;;;;;;;5143986;27;20043;-76
2023/07/18 01:45:53;;;;;;;6.45;1.83;;;;;;;;;;5136738;27;20053;-75
2023/07/18 01:48:20;;;;;;;4.70;1.77;;;;;;;;;;5143056;27;20737;-76
2023/07/18 01:50:47;;;;;;;6.82;1.80;;;;;;;;;;5141138;27;20050;-75
2023/07/18 01:53:14;;;;;;;5.85;1.83;;;;;;;;;;5134749;27;20058;-76
2023/07/18 01:55:43;;;;;;;8.65;2.00;;;;;;;;;;5138672;27;20149;-75
2023/07/18 01:58:10;;;;;;;7.70;1.73;;;;;;;;;;5146168;27;20073;-76
2023/07/18 02:00:37;;;;;;;7.07;2.03;;;;;;;;;;5139901;27;20061;-75
2023/07/18 02:03:05;;;;;;;5.78;1.55;;;;;;;;;;5141784;27;20053;-76
2023/07/18 02:05:34;;;;;;;6.85;1.90;;;;;;;;;;5121763;27;20059;-75
2023/07/18 02:08:01;;;;;;;7.68;2.00;;;;;;;;;;5128333;27;20042;-76
2023/07/18 02:10:28;;;;;;;7.90;2.17;;;;;;;;;;5143727;27;20053;-76
2023/07/18 02:13:01;;;;;;;6.28;1.85;;;;;;;;;;5127836;27;20050;-76
2023/07/18 02:15:28;;;;;;;6.45;2.10;;;;;;;;;;5144728;27;20505;-75
2023/07/18 02:17:55;;;;;;;6.45;1.80;;;;;;;;;;5140154;27;20086;-76
2023/07/18 02:20:23;;;;;;;4.60;1.80;;;;;;;;;;5143093;27;20054;-75
2023/07/18 02:22:51;;;;;;;6.10;1.85;;;;;;;;;;5127178;27;20123;-76
2023/07/18 02:25:18;;;;;;;4.88;1.73;;;;;;;;;;5143497;27;20043;-76
2023/07/18 02:27:45;;;;;;;3.25;1.70;;;;;;;;;;5145321;27;20501;-76
2023/07/18 02:30:15;;;;;;;5.40;1.83;;;;;;;;;;5141160;27;20050;-75
2023/07/18 02:32:43;;;;;;;6.40;1.83;;;;;;;;;;5126313;27;20051;-75
2023/07/18 02:35:10;;;;;;;8.45;1.73;;;;;;;;;;5147635;27;20043;-76
2023/07/18 02:37:38;;;;;;;4.05;1.60;;;;;;;;;;5144753;27;20489;-76
2023/07/18 02:40:08;;;;;;;7.45;2.00;;;;;;;;;;5143222;27;20057;-75
2023/07/18 02:42:36;;;;;;;6.35;2.08;;;;;;;;;;5117018;27;20059;-75
2023/07/18 02:45:03;;;;;;;4.68;2.10;;;;;;;;;;5144855;27;20051;-75
2023/07/18 02:47:32;;;;;;;6.20;2.42;;;;;;;;;;5118402;27;20055;-75
2023/07/18 02:49:59;;;;;;;4.88;1.70;;;;;;;;;;5142529;27;20054;-76
2023/07/18 02:52:26;;;;;;;5.90;1.92;;;;;;;;;;5121869;27;20401;-75
2023/07/18 02:54:53;;;;;;;6.20;1.90;;;;;;;;;;5138603;27;20050;-75
2023/07/18 02:57:21;;;;;;;7.20;2.00;;;;;;;;;;5140631;27;20039;-75
2023/07/18 02:59:48;;;;;;;7.13;1.98;;;;;;;;;;5143857;27;20050;-76
2023/07/18 03:02:15;;;;;;;6.45;2.20;;;;;;;;;;5142744;27;20038;-75
2023/07/18 03:04:44;;;;;;;6.63;1.70;;;;;;;;;;5138413;27;20039;-76
2023/07/18 03:07:13;;;;;;;5.18;1.75;;;;;;;;;;5145059;27;20504;-75
2023/07/18 03:09:41;;;;;;;7.28;1.92;;;;;;;;;;5147298;27;20047;-75
2023/07/18 03:12:10;;;;;;;6.25;1.98;;;;;;;;;;5124784;27;20343;-75
2023/07/18 03:14:37;;;;;;;6.53;1.90;;;;;;;;;;5145638;27;20058;-76
2023/07/18 03:17:05;;;;;;;8.15;2.53;;;;;;;;;;5146427;27;20408;-75
2023/07/18 03:19:32;;;;;;;5.18;1.70;;;;;;;;;;5131094;27;20838;-76
2023/07/18 03:22:01;;;;;;;6.97;1.75;;;;;;;;;;5119669;27;20133;-76
2023/07/18 03:24:28;;;;;;;7.00;2.10;;;;;;;;;;5149972;27;20362;-75
2023/07/18 03:26:55;;;;;;;6.18;1.98;;;;;;;;;;5129477;27;20054;-76
2023/07/18 03:29:23;;;;;;;6.82;1.90;;;;;;;;;;5145910;27;20528;-75
2023/07/18 03:31:51;;;;;;;5.97;1.77;;;;;;;;;;5123291;27;20054;-76
2023/07/18 03:34:18;;;;;;;3.75;1.80;;;;;;;;;;5143184;27;21983;-75
2023/07/18 03:36:45;;;;;;;6.35;1.92;;;;;;;;;;5141851;27;20390;-75
2023/07/18 03:39:15;;;;;;;6.20;1.90;;;;;;;;;;5142239;27;20125;-76
2023/07/18 03:41:43;;;;;;;4.65;1.88;;;;;;;;;;5128169;27;20050;-75
2023/07/18 03:44:10;;;;;;;3.45;1.40;;;;;;;;;;5148075;27;20102;-75
2023/07/18 03:46:37;;;;;;;4.72;1.55;;;;;;;;;;5150612;27;20054;-75
2023/07/18 03:49:05;;;;;;;6.18;1.80;;;;;;;;;;5147382;27;20043;-75
2023/07/18 03:51:33;;;;;;;3.70;1.60;;;;;;;;;;5149043;27;20051;-75
2023/07/18 03:54:01;;;;;;;5.00;2.13;;;;;;;;;;5144096;27;20053;-75
2023/07/18 03:56:30;;;;;;;5.38;1.63;;;;;;;;;;5128710;27;20054;-75
2023/07/18 03:58:58;;;;;;;8.57;1.95;;;;;;;;;;5149050;27;20047;-75
2023/07/18 04:01:25;;;;;;;4.65;1.70;;;;;;;;;;5147195;27;20045;-75
2023/07/18 04:03:52;;;;;;;6.65;2.25;;;;;;;;;;5151147;27;20054;-75
2023/07/18 04:06:20;;;;;;;7.63;2.10;;;;;;;;;;5144344;27;20046;-75
2023/07/18 04:08:47;;;;;;;6.63;2.05;;;;;;;;;;5148150;27;20405;-75
2023/07/18 04:11:14;;;;;;;6.40;1.95;;;;;;;;;;5144455;27;20645;-75
2023/07/18 04:13:43;;;;;;;8.77;2.17;;;;;;;;;;5152486;27;20375;-75
2023/07/18 04:16:10;;;;;;;3.88;1.55;;;;;;;;;;5145347;27;20039;-75
2023/07/18 04:18:37;;;;;;;6.05;1.90;;;;;;;;;;5142049;27;20504;-75
2023/07/18 04:21:05;;;;;;;6.13;1.90;;;;;;;;;;5147236;27;20047;-75
2023/07/18 04:23:32;;;;;;;5.45;1.95;;;;;;;;;;5141808;27;20046;-75
2023/07/18 04:26:00;;;;;;;5.57;1.90;;;;;;;;;;5125645;27;20047;-75
2023/07/18 04:28:28;;;;;;;3.75;1.88;;;;;;;;;;5144094;27;20485;-75
2023/07/18 04:30:57;;;;;;;8.98;1.90;;;;;;;;;;5146682;27;20047;-75
2023/07/18 04:33:24;;;;;;;5.43;1.75;;;;;;;;;;5139469;27;20096;-75
2023/07/18 04:35:52;;;;;;;7.30;2.05;;;;;;;;;;5128955;27;20051;-75
2023/07/18 04:38:19;;;;;;;5.45;1.80;;;;;;;;;;5141687;27;20050;-75
2023/07/18 04:40:46;;;;;;;4.90;2.10;;;;;;;;;;5143566;27;20054;-75
2023/07/18 04:43:13;;;;;;;5.78;1.67;;;;;;;;;;5148709;27;20302;-75
2023/07/18 04:45:44;;;;;;;4.57;1.63;;;;;;;;;;5143019;27;20043;-75
2023/07/18 04:48:13;;;;;;;9.00;1.92;;;;;;;;;;5141680;27;20459;-75
2023/07/18 04:50:41;;;;;;;5.38;1.80;;;;;;;;;;5129196;27;20042;-74
2023/07/18 04:53:08;;;;;;;9.55;2.13;;;;;;;;;;5149650;27;20101;-75
2023/07/18 04:55:35;;;;;;;7.70;2.28;;;;;;;;;;5137897;27;20554;-75
2023/07/18 04:58:03;;;;;;;4.70;1.73;;;;;;;;;;5144798;27;20500;-75
2023/07/18 05:00:30;;;;;;;9.52;2.00;;;;;;;;;;5142804;27;20126;-75
2023/07/18 05:02:58;;;;;;;5.72;1.75;;;;;;;;;;5143395;27;20058;-75
2023/07/18 05:05:27;;;;;;;5.90;1.65;;;;;;;;;;5145171;27;20081;-75
2023/07/18 05:07:55;;;;;;;5.60;1.95;;;;;;;;;;5140387;27;20573;-75
2023/07/18 05:10:22;;;;;;;7.95;1.88;;;;;;;;;;5148092;27;20046;-75
2023/07/18 05:12:49;;;;;;;6.50;1.75;;;;;;;;;;5142067;27;20141;-75
2023/07/18 05:15:17;;;;;;;8.68;1.77;;;;;;;;;;5107622;27;1142518;-75
2023/07/18 05:17:45;;;;;;;5.82;1.67;;;;;;;;;;5151705;27;20508;-75
2023/07/18 05:20:12;;;;;;;5.28;1.77;;;;;;;;;;5138870;27;20441;-75
2023/07/18 05:22:41;;;;;;;4.00;1.70;;;;;;;;;;5142697;27;20078;-75
2023/07/18 05:25:09;;;;;;;5.47;1.58;;;;;;;;;;5122857;27;20047;-75
2023/07/18 05:27:36;;;;;;;5.63;1.70;;;;;;;;;;5144762;27;20462;-72
2023/07/18 05:30:05;;;;;;;5.85;2.05;;;;;;;;;;5141593;27;20050;-75
2023/07/18 05:32:32;;;;;;;4.95;1.77;;;;;;;;;;5144344;27;20406;-75
2023/07/18 05:35:00;;;;;;;7.30;1.88;;;;;;;;;;5140648;27;20126;-75
2023/07/18 05:37:29;;;;;;;8.90;2.10;;;;;;;;;;5139229;27;20059;-74
2023/07/18 05:39:57;;;;;;;6.20;2.00;;;;;;;;;;5138964;27;20046;-73
2023/07/18 05:42:25;;;;;;;5.93;1.90;;;;;;;;;;5146538;27;20046;-74
2023/07/18 05:44:52;;;;;;;5.65;1.90;;;;;;;;;;5128207;27;20051;-74
2023/07/18 05:47:19;;;;;;;8.90;1.90;;;;;;;;;;5142353;27;20039;-73
2023/07/18 05:49:47;;;;;;;4.55;2.05;;;;;;;;;;5147540;27;20043;-73
2023/07/18 05:52:14;;;;;;;8.57;1.88;;;;;;;;;;5139872;27;20046;-74
2023/07/18 05:54:41;;;;;;;6.85;2.33;;;;;;;;;;5133069;27;20405;-74
2023/07/18 05:57:10;;;;;;;5.10;1.83;;;;;;;;;;5140523;27;20051;-74
2023/07/18 05:59:37;;;;;;;6.20;2.00;;;;;;;;;;5136929;27;20386;-74
2023/07/18 06:02:04;;;;;;;9.23;2.05;;;;;;;;;;5141952;27;20047;-74
2023/07/18 06:04:32;;;;;;;6.30;1.95;;;;;;;;;;5137728;27;20053;-74
2023/07/18 06:06:59;;;;;;;10.48;1.92;;;;;;;;;;5136161;27;20043;-74
2023/07/18 06:09:26;;;;;;;5.90;1.80;;;;;;;;;;5147252;27;20478;-74
2023/07/18 06:11:54;;;;;;;8.32;2.30;;;;;;;;;;5146330;27;20051;-74
2023/07/18 06:14:22;;;;;;;4.30;1.75;;;;;;;;;;5139740;27;20051;-74
2023/07/18 06:16:50;;;;;;;6.43;2.20;;;;;;;;;;5125009;27;20043;-74
2023/07/18 06:19:17;;;;;;;8.30;2.20;;;;;;;;;;5150420;27;20061;-74
2023/07/18 06:21:44;;;;;;;5.07;1.63;;;;;;;;;;5144666;27;20050;-74
2023/07/18 06:24:11;;;;;;;7.78;2.20;;;;;;;;;;5126595;27;20057;-74
2023/07/18 06:26:39;;;;;;;8.88;2.55;;;;;;;;;;5143836;27;20050;-74
2023/07/18 06:29:07;;;;;;;8.27;2.45;;;;;;;;;;5145862;27;20121;-73
2023/07/18 06:31:35;;;;;;;6.95;1.77;;;;;;;;;;5143830;27;20047;-74
2023/07/18 06:34:03;;;;;;;6.88;2.08;;;;;;;;;;5141015;27;20051;-74
2023/07/18 06:36:30;;;;;;;6.50;2.05;;;;;;;;;;5146966;27;20047;-73
2023/07/18 06:38:57;;;;;;;5.85;1.83;;;;;;;;;;5144025;27;20047;-74
2023/07/18 06:41:24;;;;;;;7.63;1.58;;;;;;;;;;5144792;27;20035;-73
2023/07/18 06:43:52;;;;;;;7.22;1.67;;;;;;;;;;5122766;27;20107;-73
2023/07/18 06:46:19;;;;;;;5.57;1.63;;;;;;;;;;5143441;27;20043;-74
2023/07/18 06:48:47;;;;;;;5.18;1.52;;;;;;;;;;5123346;27;20378;-71
2023/07/18 06:51:15;;;;;;;4.43;1.45;;;;;;;;;;5128521;27;20568;-74
2023/07/18 06:53:42;;;;;;;4.25;1.42;;;;;;;;;;5122570;27;20047;-75
2023/07/18 06:56:09;;;;;;;5.70;1.98;;;;;;;;;;5147042;27;20043;-73
2023/07/18 06:58:36;;;;;;;4.80;1.50;;;;;;;;;;5145792;27;20055;-74
2023/07/18 07:01:04;;;;;;;5.22;1.65;;;;;;;;;;5124995;27;20046;-73
2023/07/18 07:03:31;;;;;;;5.43;1.58;;;;;;;;;;5121839;27;20401;-76
2023/07/18 07:06:00;;;;;;;1.75;0.80;;;;;;;;;;5145851;27;20069;-75
2023/07/18 07:08:29;;;;;;;2.15;0.68;;;;;;;;;;5143050;27;20378;-74
2023/07/18 07:11:04;;;;;;;1.38;0.65;;;;;;;;;;5145991;27;20046;-75
2023/07/18 07:13:32;;;;;;;2.58;0.70;;;;;;;;;;5144052;27;20046;-74
2023/07/18 07:16:00;;;;;;;3.38;0.60;;;;;;;;;;5144966;27;20054;-73
2023/07/18 07:18:27;;;;;;;2.17;0.95;;;;;;;;;;5141664;27;20051;-73
2023/07/18 07:20:54;;;;;;;1.70;0.60;;;;;;;;;;5144519;27;20045;-73
2023/07/18 07:23:23;;;;;;;1.55;0.63;;;;;;;;;;5140816;27;20054;-73
2023/07/18 07:25:51;;;;;;;2.65;0.90;;;;;;;;;;5146461;27;20497;-73
2023/07/18 07:28:19;;;;;;;4.32;0.88;;;;;;;;;;5145348;27;20898;-73
2023/07/18 07:30:46;;;;;;;0.75;0.55;;;;;;;;;;5144768;27;20122;-73
2023/07/18 07:33:14;;;;;;;2.63;0.80;;;;;;;;;;5144322;27;20046;-74
2023/07/18 07:35:43;;;;;;;1.20;0.73;;;;;;;;;;5142222;27;20058;-74
2023/07/18 07:38:10;;;;;;;4.28;0.88;;;;;;;;;;5128754;27;20050;-74
2023/07/18 07:40:39;;;;;;;2.78;0.90;;;;;;;;;;5144878;27;20061;-73
2023/07/18 07:43:06;;;;;;;4.28;0.93;;;;;;;;;;5144792;27;20502;-74
2023/07/18 07:45:33;;;;;;;3.88;0.75;;;;;;;;;;5124249;27;20078;-74
2023/07/18 07:48:00;;;;;;;2.42;0.77;;;;;;;;;;5145426;27;20107;-73
2023/07/18 07:50:28;;;;;;;2.17;0.80;;;;;;;;;;5146114;27;20490;-74
2023/07/18 07:52:55;;;;;;;1.40;0.63;;;;;;;;;;5128581;27;20061;-74
2023/07/18 07:55:22;;;;;;;3.13;0.60;;;;;;;;;;5141969;27;20047;-74
2023/07/18 07:57:51;;;;;;;1.05;0.50;;;;;;;;;;5148292;27;20049;-73
2023/07/18 08:00:19;;;;;;;2.42;0.60;;;;;;;;;;5146304;27;20051;-75
2023/07/18 08:02:46;;;;;;;2.35;0.65;;;;;;;;;;5146695;27;20082;-75
2023/07/18 08:05:14;;;;;;;1.05;0.47;;;;;;;;;;5146230;27;20054;-74
2023/07/18 08:07:43;;;;;;;1.83;0.85;;;;;;;;;;5148942;27;20043;-75
2023/07/18 08:10:11;;;;;;;2.15;0.60;;;;;;;;;;5148963;27;20046;-73
2023/07/18 08:12:38;;;;;;;1.38;0.65;;;;;;;;;;5146190;27;20130;-74
2023/07/18 08:15:08;;;;;;;1.58;0.60;;;;;;;;;;5125893;27;20126;-73
2023/07/18 08:17:35;;;;;;;1.38;0.60;;;;;;;;;;5148174;27;20047;-74
2023/07/18 08:20:04;;;;;;;2.10;0.60;;;;;;;;;;5148365;27;20043;-73
2023/07/18 08:22:31;;;;;;;1.98;0.80;;;;;;;;;;5145630;27;20091;-73
2023/07/18 08:24:59;;;;;;;1.65;0.65;;;;;;;;;;5147909;27;20043;-74
2023/07/18 08:27:26;;;;;;;1.83;0.70;;;;;;;;;;5145668;27;20047;-74
2023/07/18 08:29:53;;;;;;;2.03;0.65;;;;;;;;;;5150991;27;20401;-75
2023/07/18 08:32:22;;;;;;;1.67;0.60;;;;;;;;;;5147968;27;20431;-74
2023/07/18 08:34:49;;;;;;;1.35;0.50;;;;;;;;;;5143143;27;20050;-73
2023/07/18 08:37:17;;;;;;;1.10;0.55;;;;;;;;;;5128751;27;20075;-73
2023/07/18 08:39:44;;;;;;;1.85;0.65;;;;;;;;;;5148501;27;20458;-75
2023/07/18 08:42:14;;;;;;;1.90;0.85;;;;;;;;;;5147595;27;20047;-74
2023/07/18 08:44:41;;;;;;;1.55;0.68;;;;;;;;;;5143617;27;20042;-75
2023/07/18 08:47:10;;;;;;;4.28;0.75;;;;;;;;;;5145506;27;20389;-73
2023/07/18 08:49:40;;;;;;;3.67;0.52;;;;;;;;;;5148909;27;20424;-74
2023/07/18 08:52:08;;;;;;;2.00;0.70;;;;;;;;;;5145340;27;20042;-73
2023/07/18 08:54:35;;;;;;;0.93;0.45;;;;;;;;;;5149574;27;20077;-73
2023/07/18 08:57:03;;;;;;;1.10;0.50;;;;;;;;;;5123760;27;20079;-73
2023/07/18 08:59:31;;;;;;;2.30;0.68;;;;;;;;;;5144610;27;20057;-73
2023/07/18 09:01:58;;;;;;;2.35;0.73;;;;;;;;;;5145106;27;20047;-75
2023/07/18 09:04:25;;;;;;;2.70;0.88;;;;;;;;;;5131216;27;20397;-73
2023/07/18 09:06:58;;;;;;;0.60;0.40;;;;;;;;;;5147522;27;20414;-74
2023/07/18 09:09:25;;;;;;;;;;;;;;;;;;5144269;27;20039;-74
2023/07/18 09:11:56;;;;;;;0.77;0.60;;;;;;;;;;5149430;27;19934;-74
2023/07/18 09:14:24;;;;;;;2.90;0.88;;;;;;;;;;5145677;27;20110;-72
2023/07/18 09:16:51;;;;;;;2.30;0.63;;;;;;;;;;5143075;27;20042;-72
2023/07/18 09:19:19;;;;;;;2.63;0.85;;;;;;;;;;5147584;27;20047;-72
2023/07/18 09:21:46;;;;;;;1.48;0.50;;;;;;;;;;5147038;27;20270;-71
2023/07/18 09:24:15;;;;;;;4.03;0.95;;;;;;;;;;5150353;27;20089;-73
2023/07/18 09:26:42;;;;;;;2.25;0.60;;;;;;;;;;5139274;27;20067;-72
2023/07/18 09:29:12;;;;;;;4.40;0.80;;;;;;;;;;5137015;27;20058;-71
2023/07/18 09:31:40;;;;;;;3.65;0.80;;;;;;;;;;5144398;27;20064;-72
2023/07/18 09:34:12;;;;;;;2.40;0.80;;;;;;;;;;5143449;27;20078;-72
2023/07/18 09:36:39;;;;;;;2.22;0.80;;;;;;;;;;5145382;27;20051;-73
2023/07/18 09:39:09;;;;;;;2.17;0.93;;;;;;;;;;5126607;27;20518;-75
2023/07/18 09:41:39;;;;;;;6.18;1.10;;;;;;;;;;5126462;27;20074;-73
2023/07/18 09:44:07;;;;;;;2.35;0.80;;;;;;;;;;5135396;27;20782;-71
2023/07/18 09:46:34;;;;;;;3.00;1.05;;;;;;;;;;5139369;27;20050;-72
2023/07/18 09:49:01;;;;;;;3.97;0.85;;;;;;;;;;5137898;27;20046;-72
2023/07/18 09:51:32;;;;;;;1.00;0.75;;;;;;;;;;5145166;27;20099;-72
2023/07/18 09:54:00;;;;;;;2.15;0.70;;;;;;;;;;5140730;27;20082;-72
2023/07/18 09:56:28;;;;;;;2.50;0.90;;;;;;;;;;5133890;27;20051;-73
2023/07/18 09:59:01;;;;;;;2.58;0.82;;;;;;;;;;5140697;27;20059;-73
2023/07/18 10:01:29;;;;;;;3.63;1.08;;;;;;;;;;5140923;27;20459;-73
2023/07/18 10:03:56;;;;;;;4.18;1.00;;;;;;;;;;5148259;27;20058;-75
2023/07/18 10:06:24;;;;;;;3.75;0.90;;;;;;;;;;5138024;27;20505;-73
2023/07/18 10:08:51;;;;;;;5.78;0.80;;;;;;;;;;5141968;27;20409;-72
2023/07/18 10:11:19;;;;;;;5.07;1.00;;;;;;;;;;5124173;27;20746;-75
2023/07/18 10:14:02;;;;;;;4.35;1.10;;;;;;;;;;5146818;27;20042;-71
2023/07/18 10:16:32;;;;;;;3.28;0.80;;;;;;;;;;5142365;27;20046;-72
2023/07/18 10:18:59;;;;;;;2.92;0.93;;;;;;;;;;5129642;27;20050;-75
2023/07/18 10:21:31;;;;;;;2.00;0.93;;;;;;;;;;5130735;27;20059;-74
2023/07/18 10:23:58;;;;;;;2.40;0.93;;;;;;;;;;5141358;27;20042;-72
2023/07/18 10:26:30;;;;;;;3.50;1.25;;;;;;;;;;5136979;27;20042;-72
2023/07/18 10:29:00;;;;;;;4.60;0.85;;;;;;;;;;5145626;27;20054;-74
2023/07/18 10:31:28;;;;;;;2.45;0.90;;;;;;;;;;5137734;27;20054;-72
2023/07/18 10:34:14;;;;;;;5.38;1.38;;;;;;;;;;5141010;27;20083;-73
2023/07/18 10:36:41;;;;;;;3.67;1.60;;;;;;;;;;5124955;27;20043;-72
2023/07/18 10:39:11;;;;;;;5.10;1.00;;;;;;;;;;5145636;27;20474;-72
2023/07/18 10:41:38;;;;;;;4.75;1.00;;;;;;;;;;5143847;27;20129;-72
2023/07/18 10:44:05;;;;;;;2.15;0.80;;;;;;;;;;5144766;27;20381;-72
2023/07/18 10:46:38;;;;;;;1.92;0.60;;;;;;;;;;5121038;27;20058;-72
2023/07/18 10:49:05;;;;;;;2.42;0.93;;;;;;;;;;5126210;27;20054;-73
2023/07/18 10:51:34;;;;;;;1.95;0.70;;;;;;;;;;5123656;27;20481;-73
2023/07/18 10:54:02;;;;;;;1.95;0.80;;;;;;;;;;5126503;27;20054;-73
2023/07/18 10:56:29;;;;;;;2.35;1.00;;;;;;;;;;5141007;27;20047;-73
2023/07/18 10:58:57;;;;;;;1.98;0.68;;;;;;;;;;5127913;27;20046;-73
2023/07/18 11:01:25;;;;;;;2.15;0.90;;;;;;;;;;5121993;27;20059;-73
2023/07/18 11:03:52;;;;;;;2.20;0.90;;;;;;;;;;5146363;27;20047;-72
2023/07/18 11:06:21;;;;;;;3.13;1.00;;;;;;;;;;5138061;27;20051;-73
2023/07/18 11:08:50;;;;;;;1.85;0.90;;;;;;;;;;5137599;27;20504;-73
2023/07/18 11:11:18;;;;;;;1.48;0.88;;;;;;;;;;5143587;27;20051;-66
2023/07/18 11:13:45;;;;;;;1.95;0.60;;;;;;;;;;5143610;27;20050;-66
2023/07/18 11:16:14;;;;;;;2.55;0.73;;;;;;;;;;5141293;27;20069;-64
2023/07/18 11:18:43;;;;;;;3.10;0.80;;;;;;;;;;5147357;27;20038;-66
2023/07/18 11:21:10;;;;;;;3.00;0.75;;;;;;;;;;5145148;27;20055;-65
2023/07/18 11:23:38;;;;;;;3.05;0.73;;;;;;;;;;5142089;27;20050;-64
2023/07/18 11:26:12;;;;;;;1.77;0.75;;;;;;;;;;5144572;27;20078;-64
2023/07/18 11:28:39;;;;;;;2.38;0.70;;;;;;;;;;5127826;27;20074;-65
2023/07/18 11:31:07;;;;;;;2.85;0.95;;;;;;;;;;5144843;27;20050;-65
2023/07/18 11:33:34;;;;;;;2.97;0.80;;;;;;;;;;5127275;27;20460;-65
2023/07/18 11:36:01;;;;;;;4.53;1.02;;;;;;;;;;5132934;27;20492;-64
2023/07/18 11:38:29;;;;;;;4.35;1.00;;;;;;;;;;5149111;27;20073;-64
2023/07/18 11:40:58;;;;;;;4.18;1.00;;;;;;;;;;5145568;27;20055;-66
2023/07/18 11:43:30;;;;;;;1.88;0.77;;;;;;;;;;5141941;27;20067;-64
2023/07/18 11:45:57;;;;;;;3.90;0.90;;;;;;;;;;5150079;27;20051;-65
2023/07/18 11:48:27;;;;;;;3.65;0.88;;;;;;;;;;5151136;27;20039;-65
2023/07/18 11:50:54;;;;;;;4.47;0.85;;;;;;;;;;5146560;27;20046;-64
2023/07/18 11:53:26;;;;;;;3.88;1.08;;;;;;;;;;5143879;27;20125;-64
2023/07/18 11:55:53;;;;;;;3.75;1.15;;;;;;;;;;5136996;27;20062;-65
2023/07/18 11:58:21;;;;;;;3.10;1.10;;;;;;;;;;5146448;27;20082;-65
2023/07/18 12:00:49;;;;;;;4.45;1.20;;;;;;;;;;5150178;27;20047;-65
2023/07/18 12:03:17;;;;;;;3.40;0.90;;;;;;;;;;5142095;27;20069;-64
2023/07/18 12:05:44;;;;;;;3.95;1.40;;;;;;;;;;5128056;27;20126;-65
2023/07/18 12:08:13;;;;;;;3.78;1.10;;;;;;;;;;5145443;27;20135;-65
2023/07/18 12:10:40;;;;;;;7.03;1.50;;;;;;;;;;5146135;27;20486;-64
2023/07/18 12:13:08;;;;;;;8.35;1.17;;;;;;;;;;5145308;27;20226;-65
2023/07/18 12:15:35;;;;;;;5.13;1.02;;;;;;;;;;5149270;27;20047;-65
2023/07/18 12:18:03;;;;;;;6.72;1.48;;;;;;;;;;5135736;27;20066;-64
2023/07/18 12:20:31;;;;;;;2.75;1.00;;;;;;;;;;5148146;27;20054;-65
2023/07/18 12:22:59;;;;;;;7.22;1.35;;;;;;;;;;5130535;27;20503;-65
2023/07/18 12:25:31;;;;;;;7.38;1.52;;;;;;;;;;5128559;27;20077;-65
2023/07/18 12:27:58;;;;;;;4.67;1.50;;;;;;;;;;5129865;27;20057;-65
2023/07/18 12:30:26;;;;;;;4.50;1.10;;;;;;;;;;5147423;27;20055;-65
2023/07/18 12:32:54;;;;;;;5.68;1.48;;;;;;;;;;5147366;27;20447;-65
2023/07/18 12:35:22;;;;;;;3.65;1.00;;;;;;;;;;5150990;27;20049;-65
2023/07/18 12:37:50;;;;;;;5.63;1.25;;;;;;;;;;5146221;27;20039;-65
2023/07/18 12:40:18;;;;;;;4.03;1.05;;;;;;;;;;5143531;27;20065;-65
2023/07/18 12:42:45;;;;;;;7.65;1.02;;;;;;;;;;5126539;27;20152;-65
2023/07/18 12:45:13;;;;;;;4.93;1.40;;;;;;;;;;5142937;27;20130;-65
2023/07/18 12:47:40;;;;;;;5.85;1.63;;;;;;;;;;5150131;27;20130;-65
2023/07/18 12:50:08;;;;;;;5.88;1.80;;;;;;;;;;5130389;27;20053;-65
2023/07/18 12:52:36;;;;;;;6.88;1.40;;;;;;;;;;5140813;27;20062;-65
2023/07/18 12:55:05;;;;;;;6.55;1.42;;;;;;;;;;5144204;27;20139;-65
2023/07/18 12:57:32;;;;;;;4.20;1.27;;;;;;;;;;5133458;27;20079;-65
2023/07/18 12:59:59;;;;;;;3.83;1.10;;;;;;;;;;5144801;27;20053;-64
2023/07/18 13:02:26;;;;;;;5.00;1.00;;;;;;;;;;5141973;27;20047;-65
2023/07/18 13:04:54;;;;;;;4.10;1.20;;;;;;;;;;5149245;27;20735;-67
2023/07/18 13:07:21;;;;;;;3.95;1.35;;;;;;;;;;5138265;27;20042;-65
2023/07/18 13:09:50;;;;;;;8.32;1.50;;;;;;;;;;5144175;27;20498;-65
2023/07/18 13:12:17;;;;;;;7.53;1.55;;;;;;;;;;5148535;27;20065;-65
2023/07/18 13:14:44;;;;;;;5.85;1.40;;;;;;;;;;5147627;27;20043;-65
2023/07/18 13:17:11;;;;;;;3.70;1.30;;;;;;;;;;5143955;27;20178;-65
2023/07/18 13:19:39;;;;;;;7.45;1.30;;;;;;;;;;5138573;27;20073;-65
2023/07/18 13:22:06;;;;;;;7.30;1.60;;;;;;;;;;5140203;27;20050;-66
2023/07/18 13:24:34;;;;;;;10.40;1.35;;;;;;;;;;5144121;27;20046;-65
2023/07/18 13:27:02;;;;;;;9.50;1.88;;;;;;;;;;5142484;27;20046;-65
2023/07/18 13:29:29;;;;;;;3.92;1.10;;;;;;;;;;5136473;27;20054;-65
2023/07/18 13:31:56;;;;;;;4.75;1.40;;;;;;;;;;5132858;27;20497;-65
2023/07/18 13:34:24;;;;;;;5.43;1.40;;;;;;;;;;5144062;27;20047;-65
2023/07/18 13:36:51;;;;;;;4.80;1.20;;;;;;;;;;5142737;27;20043;-65
2023/07/18 13:39:18;;;;;;;4.45;1.38;;;;;;;;;;5139822;27;20647;-65
2023/07/18 13:41:46;;;;;;;3.70;1.17;;;;;;;;;;5142480;27;20160;-65
2023/07/18 13:44:15;;;;;;;5.43;1.10;;;;;;;;;;5140035;27;20051;-65
2023/07/18 13:46:42;;;;;;;3.30;1.13;;;;;;;;;;5144912;27;20524;-65
2023/07/18 13:49:09;;;;;;;5.50;1.00;;;;;;;;;;5137085;27;20050;-65
2023/07/18 13:51:36;;;;;;;4.38;1.27;;;;;;;;;;5135002;27;20105;-65
2023/07/18 13:54:04;;;;;;;3.58;1.13;;;;;;;;;;5142840;27;20039;-65
2023/07/18 13:56:31;;;;;;;4.80;1.10;;;;;;;;;;5143821;27;20189;-65
2023/07/18 13:58:59;;;;;;;3.38;1.10;;;;;;;;;;5143642;27;20046;-65
2023/07/18 14:01:27;;;;;;;3.42;1.30;;;;;;;;;;5143289;27;20051;-67
2023/07/18 14:03:54;;;;;;;4.85;1.17;;;;;;;;;;5135896;27;20046;-67
2023/07/18 14:06:22;;;;;;;6.00;1.40;;;;;;;;;;5135923;27;20515;-66
2023/07/18 14:08:49;;;;;;;3.33;0.98;;;;;;;;;;5143170;27;20072;-65
2023/07/18 14:11:16;;;;;;;4.00;1.05;;;;;;;;;;5144396;27;20039;-65
2023/07/18 14:13:44;;;;;;;4.18;1.10;;;;;;;;;;5137704;27;20051;-65
2023/07/18 14:16:11;;;;;;;5.57;1.20;;;;;;;;;;5145365;27;20129;-66
2023/07/18 14:18:41;;;;;;;5.07;1.30;;;;;;;;;;5141885;27;20043;-65
2023/07/18 14:21:08;;;;;;;4.22;1.60;;;;;;;;;;5141049;27;20047;-65
2023/07/18 14:23:36;;;;;;;4.43;1.38;;;;;;;;;;5135570;27;20055;-65
2023/07/18 14:26:03;;;;;;;4.35;1.20;;;;;;;;;;5139395;27;20460;-66
2023/07/18 14:28:30;;;;;;;3.90;1.52;;;;;;;;;;5135859;27;20050;-66
2023/07/18 14:30:57;;;;;;;4.90;1.58;;;;;;;;;;5144069;27;20047;-65
2023/07/18 14:33:25;;;;;;;6.78;1.67;;;;;;;;;;5139601;27;20050;-66
2023/07/18 14:35:53;;;;;;;2.38;1.10;;;;;;;;;;5133156;27;20055;-66
2023/07/18 14:38:20;;;;;;;5.68;1.27;;;;;;;;;;5140002;27;20485;-66
2023/07/18 14:40:49;;;;;;;3.53;1.20;;;;;;;;;;5140967;27;20069;-66
2023/07/18 14:43:22;;;;;;;3.30;1.20;;;;;;;;;;5144743;27;20103;-66
2023/07/18 14:45:49;;;;;;;2.28;1.20;;;;;;;;;;5142183;27;20126;-66
2023/07/18 14:48:16;;;;;;;2.45;1.35;;;;;;;;;;5147842;27;20054;-66